Time;durP1;ratioP1;P1;durP2;ratioP2;P2;SDS_P1;SDS_P2;PMS_P1;PMS_P2;Temp;Humidity;BMP_temperature;BMP_pressure;BME280_temperature;BME280_humidity;BME280_pressure;Samples;Min_cycle;Max_cycle;Signal;HPM_P1;HPM_P2
2022/10/20 00:00:18;;;;;;;61.57;4.70;;;;;;;;;;5112227;28;20453;-69
2022/10/20 00:02:45;;;;;;;60.50;5.27;;;;;;;;;;5112399;28;20446;-68
2022/10/20 00:05:14;;;;;;;61.77;5.23;;;;;;;;;;5112715;28;20442;-68
2022/10/20 00:07:41;;;;;;;61.67;5.93;;;;;;;;;;5112369;28;21000;-68
2022/10/20 00:10:08;;;;;;;62.17;4.60;;;;;;;;;;5112263;28;20452;-69
2022/10/20 00:12:36;;;;;;;59.97;4.00;;;;;;;;;;5112419;28;20461;-68
2022/10/20 00:15:03;;;;;;;65.00;6.53;;;;;;;;;;5112365;28;20639;-68
2022/10/20 00:17:30;;;;;;;59.00;4.00;;;;;;;;;;5112220;28;20986;-68
2022/10/20 00:19:57;;;;;;;61.50;4.97;;;;;;;;;;5112149;28;20445;-69
2022/10/20 00:22:25;;;;;;;60.13;4.53;;;;;;;;;;5112117;28;20488;-68
2022/10/20 00:24:53;;;;;;;62.07;4.77;;;;;;;;;;5112319;28;20544;-68
2022/10/20 00:27:20;;;;;;;60.47;5.10;;;;;;;;;;5112089;28;20480;-68
2022/10/20 00:29:48;;;;;;;62.27;5.43;;;;;;;;;;5111769;28;20935;-69
2022/10/20 00:32:15;;;;;;;61.50;4.90;;;;;;;;;;5112335;28;20518;-68
2022/10/20 00:34:42;;;;;;;60.20;4.30;;;;;;;;;;5112158;28;20457;-68
2022/10/20 00:37:09;;;;;;;62.87;5.30;;;;;;;;;;5112146;28;20475;-68
2022/10/20 00:39:38;;;;;;;59.90;4.40;;;;;;;;;;5111738;28;20446;-68
2022/10/20 00:42:05;;;;;;;61.83;4.97;;;;;;;;;;5111974;28;20481;-68
2022/10/20 00:44:49;;;;;;;62.07;5.60;;;;;;;;;;5112023;28;20450;-69
2022/10/20 00:47:18;;;;;;;62.17;4.70;;;;;;;;;;5112084;28;20465;-68
2022/10/20 00:49:45;;;;;;;59.57;4.30;;;;;;;;;;5111750;28;20449;-68
2022/10/20 00:52:12;;;;;;;58.80;3.70;;;;;;;;;;5112064;28;20438;-68
2022/10/20 00:54:41;;;;;;;62.67;5.30;;;;;;;;;;5111892;28;20449;-68
2022/10/20 00:57:08;;;;;;;61.30;4.90;;;;;;;;;;5111796;28;20470;-69
2022/10/20 00:59:37;;;;;;;64.00;5.10;;;;;;;;;;5114409;28;20445;-68
2022/10/20 01:02:05;;;;;;;61.47;5.30;;;;;;;;;;5115956;28;20476;-68
2022/10/20 01:04:33;;;;;;;63.07;4.27;;;;;;;;;;5115992;27;20445;-68
2022/10/20 01:07:00;;;;;;;62.60;4.67;;;;;;;;;;5115797;28;20468;-68
2022/10/20 01:09:28;;;;;;;61.03;4.67;;;;;;;;;;5115435;28;20946;-69
2022/10/20 01:12:00;;;;;;;61.00;5.57;;;;;;;;;;5116092;28;20809;-69
2022/10/20 01:14:33;;;;;;;65.37;5.57;;;;;;;;;;5115988;28;20456;-69
2022/10/20 01:17:03;;;;;;;60.70;4.83;;;;;;;;;;5115824;28;20470;-68
2022/10/20 01:20:03;;;;;;;62.07;4.80;;;;;;;;;;5115753;27;20922;-69
2022/10/20 01:22:42;;;;;;;61.87;6.07;;;;;;;;;;5115807;28;20480;-69
2022/10/20 01:25:17;;;;;;;58.83;3.40;;;;;;;;;;5115684;28;20467;-68
2022/10/20 01:27:46;;;;;;;58.73;3.57;;;;;;;;;;5115422;28;20465;-68
2022/10/20 01:30:14;;;;;;;60.77;5.00;;;;;;;;;;5115137;27;20448;-68
2022/10/20 01:32:52;;;;;;;60.57;5.63;;;;;;;;;;5115598;28;20445;-68
2022/10/20 01:35:23;;;;;;;61.73;5.00;;;;;;;;;;5115428;28;20459;-68
2022/10/20 01:37:52;;;;;;;60.27;3.40;;;;;;;;;;5115451;27;20444;-68
2022/10/20 01:40:22;;;;;;;59.47;3.87;;;;;;;;;;5112891;28;20454;-68
2022/10/20 01:42:52;;;;;;;62.00;5.53;;;;;;;;;;5115407;28;20894;-68
2022/10/20 01:45:21;;;;;;;61.07;4.03;;;;;;;;;;5115306;28;20457;-68
2022/10/20 01:47:49;;;;;;;61.40;5.60;;;;;;;;;;5115188;28;20442;-68
2022/10/20 01:50:17;;;;;;;60.17;4.80;;;;;;;;;;5114740;28;20497;-68
2022/10/20 01:52:44;;;;;;;60.00;4.53;;;;;;;;;;5115253;28;20434;-68
2022/10/20 01:55:13;;;;;;;61.13;5.13;;;;;;;;;;5114954;28;20445;-68
2022/10/20 01:57:45;;;;;;;61.20;5.27;;;;;;;;;;5114906;28;20548;-68
2022/10/20 02:00:15;;;;;;;60.17;4.30;;;;;;;;;;5114701;28;20449;-69
2022/10/20 02:02:51;;;;;;;61.60;4.83;;;;;;;;;;5114713;28;20532;-68
2022/10/20 02:05:24;;;;;;;60.57;4.23;;;;;;;;;;5115022;28;20456;-68
2022/10/20 02:07:53;;;;;;;68.10;5.30;;;;;;;;;;5114960;28;20452;-69
2022/10/20 02:10:21;;;;;;;59.70;3.37;;;;;;;;;;5114048;28;20814;-69
2022/10/20 02:12:51;;;;;;;60.97;5.30;;;;;;;;;;5114755;28;20452;-68
2022/10/20 02:15:22;;;;;;;60.20;4.27;;;;;;;;;;5114515;28;20447;-69
2022/10/20 02:17:52;;;;;;;61.73;5.00;;;;;;;;;;5114595;28;20455;-69
2022/10/20 02:20:20;;;;;;;60.23;5.10;;;;;;;;;;5114629;27;20446;-68
2022/10/20 02:22:48;;;;;;;62.43;5.10;;;;;;;;;;5114398;28;20477;-68
2022/10/20 02:25:15;;;;;;;60.60;5.20;;;;;;;;;;5114502;28;20446;-69
2022/10/20 02:27:45;;;;;;;61.70;5.33;;;;;;;;;;5114138;28;20476;-69
2022/10/20 02:30:13;;;;;;;75.13;6.83;;;;;;;;;;5114012;28;20960;-69
2022/10/20 02:32:42;;;;;;;60.57;5.27;;;;;;;;;;5114215;28;20438;-69
2022/10/20 02:35:11;;;;;;;59.73;3.90;;;;;;;;;;5114273;28;20457;-68
2022/10/20 02:37:38;;;;;;;62.63;4.93;;;;;;;;;;5114085;28;20465;-69
2022/10/20 02:40:05;;;;;;;60.10;4.63;;;;;;;;;;5113805;28;20445;-69
2022/10/20 02:42:32;;;;;;;62.97;5.23;;;;;;;;;;5114293;28;20481;-69
2022/10/20 02:45:00;;;;;;;61.93;6.50;;;;;;;;;;5114090;27;20968;-68
2022/10/20 02:47:27;;;;;;;59.80;4.53;;;;;;;;;;5114095;28;20473;-68
2022/10/20 02:49:55;;;;;;;60.30;3.80;;;;;;;;;;5113704;28;20453;-69
2022/10/20 02:52:22;;;;;;;61.20;5.90;;;;;;;;;;5113979;28;20827;-68
2022/10/20 02:54:49;;;;;;;62.87;7.47;;;;;;;;;;5113782;28;20441;-69
2022/10/20 02:57:16;;;;;;;62.30;4.80;;;;;;;;;;5113940;28;20458;-68
2022/10/20 02:59:43;;;;;;;59.20;3.87;;;;;;;;;;5113436;28;20946;-69
2022/10/20 03:02:10;;;;;;;61.97;6.10;;;;;;;;;;5113785;28;20488;-70
2022/10/20 03:04:38;;;;;;;61.87;4.90;;;;;;;;;;5113740;28;20454;-69
2022/10/20 03:07:06;;;;;;;62.10;6.00;;;;;;;;;;5113490;28;20469;-70
2022/10/20 03:09:33;;;;;;;61.17;5.23;;;;;;;;;;5113145;28;20450;-68
2022/10/20 03:12:00;;;;;;;60.77;4.87;;;;;;;;;;5113763;28;20529;-69
2022/10/20 03:14:27;;;;;;;61.67;6.30;;;;;;;;;;5113402;28;20453;-67
2022/10/20 03:16:54;;;;;;;62.10;4.83;;;;;;;;;;5113535;27;20870;-69
2022/10/20 03:19:21;;;;;;;59.80;4.73;;;;;;;;;;5113104;28;20460;-69
2022/10/20 03:21:49;;;;;;;60.90;4.33;;;;;;;;;;5112280;28;20997;-68
2022/10/20 03:24:17;;;;;;;63.03;4.53;;;;;;;;;;5113202;28;20445;-68
2022/10/20 03:26:44;;;;;;;60.40;4.13;;;;;;;;;;5113169;28;21003;-69
2022/10/20 03:29:11;;;;;;;58.90;3.53;;;;;;;;;;5112983;28;20442;-69
2022/10/20 03:31:39;;;;;;;60.97;4.83;;;;;;;;;;5113008;28;20452;-69
2022/10/20 03:34:06;;;;;;;63.93;4.83;;;;;;;;;;5112920;28;20950;-69
2022/10/20 03:36:33;;;;;;;61.90;5.17;;;;;;;;;;5112874;28;20469;-68
2022/10/20 03:39:00;;;;;;;63.27;5.43;;;;;;;;;;5112849;28;20458;-68
2022/10/20 03:41:28;;;;;;;61.17;5.43;;;;;;;;;;5112847;28;20956;-68
2022/10/20 03:43:55;;;;;;;61.73;4.90;;;;;;;;;;5113029;28;20455;-69
2022/10/20 03:46:22;;;;;;;61.57;6.03;;;;;;;;;;5112759;28;20471;-68
2022/10/20 03:48:49;;;;;;;60.90;5.27;;;;;;;;;;5112503;28;20448;-69
2022/10/20 03:51:17;;;;;;;60.57;4.73;;;;;;;;;;5112687;28;20447;-69
2022/10/20 03:53:44;;;;;;;64.40;5.67;;;;;;;;;;5112945;28;20452;-68
2022/10/20 03:56:11;;;;;;;64.30;6.23;;;;;;;;;;5112576;28;20470;-69
2022/10/20 03:58:40;;;;;;;62.87;4.30;;;;;;;;;;5112272;28;20946;-69
2022/10/20 04:01:09;;;;;;;59.93;4.13;;;;;;;;;;5112641;28;20476;-69
2022/10/20 04:03:36;;;;;;;61.10;4.90;;;;;;;;;;5112273;28;20484;-69
2022/10/20 04:06:03;;;;;;;61.87;5.80;;;;;;;;;;5112619;28;20469;-68
2022/10/20 04:08:30;;;;;;;62.57;5.50;;;;;;;;;;5112195;28;20445;-69
2022/10/20 04:10:58;;;;;;;70.00;5.93;;;;;;;;;;5112282;28;20961;-69
2022/10/20 04:13:25;;;;;;;69.30;7.70;;;;;;;;;;5112437;28;20938;-69
2022/10/20 04:15:53;;;;;;;63.03;4.87;;;;;;;;;;5112385;28;20465;-69
2022/10/20 04:18:20;;;;;;;61.27;4.90;;;;;;;;;;5112242;28;20438;-68
2022/10/20 04:20:48;;;;;;;60.00;4.17;;;;;;;;;;5112214;28;20445;-69
2022/10/20 04:23:15;;;;;;;61.47;5.43;;;;;;;;;;5112411;28;20484;-70
2022/10/20 04:25:46;;;;;;;62.87;6.70;;;;;;;;;;5112248;28;20470;-68
2022/10/20 04:28:13;;;;;;;62.97;5.03;;;;;;;;;;5112311;28;20546;-68
2022/10/20 04:30:40;;;;;;;60.70;4.10;;;;;;;;;;5111855;28;20456;-68
2022/10/20 04:33:09;;;;;;;62.20;6.27;;;;;;;;;;5112233;28;20533;-68
2022/10/20 04:35:36;;;;;;;81.30;6.10;;;;;;;;;;5112101;28;20457;-69
2022/10/20 04:38:03;;;;;;;60.10;4.47;;;;;;;;;;5112034;28;20454;-69
2022/10/20 04:40:30;;;;;;;62.47;5.07;;;;;;;;;;5111908;28;20442;-68
2022/10/20 04:42:59;;;;;;;61.80;5.80;;;;;;;;;;5112008;28;20484;-68
2022/10/20 04:45:26;;;;;;;62.77;4.90;;;;;;;;;;5112025;28;20450;-68
2022/10/20 04:47:54;;;;;;;61.83;4.07;;;;;;;;;;5112304;28;20834;-69
2022/10/20 04:50:23;;;;;;;63.90;4.73;;;;;;;;;;5111680;28;20455;-68
2022/10/20 04:52:50;;;;;;;61.53;6.03;;;;;;;;;;5112138;28;20540;-69
2022/10/20 04:55:17;;;;;;;61.93;4.70;;;;;;;;;;5112039;28;20441;-68
2022/10/20 04:57:44;;;;;;;62.47;4.17;;;;;;;;;;5111778;28;20469;-68
2022/10/20 05:00:12;;;;;;;60.83;5.23;;;;;;;;;;5111867;28;20468;-69
2022/10/20 05:02:39;;;;;;;59.00;3.90;;;;;;;;;;5112015;28;20499;-69
2022/10/20 05:05:06;;;;;;;62.83;4.97;;;;;;;;;;5111795;28;20444;-69
2022/10/20 05:07:35;;;;;;;60.07;4.20;;;;;;;;;;5111798;28;20977;-68
2022/10/20 05:10:02;;;;;;;60.20;4.53;;;;;;;;;;5111558;28;20449;-70
2022/10/20 05:12:29;;;;;;;61.70;4.07;;;;;;;;;;5111675;28;20438;-68
2022/10/20 05:14:56;;;;;;;59.87;4.30;;;;;;;;;;5112044;28;20808;-69
2022/10/20 05:17:23;;;;;;;64.50;5.47;;;;;;;;;;5111840;28;20472;-68
2022/10/20 05:19:50;;;;;;;60.77;5.60;;;;;;;;;;5111295;28;20446;-69
2022/10/20 05:22:17;;;;;;;64.20;5.53;;;;;;;;;;5111745;28;20481;-68
2022/10/20 05:24:46;;;;;;;61.07;4.27;;;;;;;;;;5111513;28;20446;-69
2022/10/20 05:27:13;;;;;;;61.20;4.60;;;;;;;;;;5111850;28;20848;-69
2022/10/20 05:29:40;;;;;;;62.07;4.57;;;;;;;;;;5111554;28;20449;-69
2022/10/20 05:32:07;;;;;;;66.23;5.47;;;;;;;;;;5111709;28;20442;-69
2022/10/20 05:34:34;;;;;;;60.07;4.93;;;;;;;;;;5111344;28;20976;-68
2022/10/20 05:37:01;;;;;;;60.87;4.93;;;;;;;;;;5111616;28;20472;-69
2022/10/20 05:39:28;;;;;;;63.00;5.20;;;;;;;;;;5111603;28;20445;-69
2022/10/20 05:41:57;;;;;;;59.87;4.73;;;;;;;;;;5111627;28;20945;-68
2022/10/20 05:44:24;;;;;;;61.10;4.40;;;;;;;;;;5111320;28;20492;-71
2022/10/20 05:46:51;;;;;;;61.30;5.10;;;;;;;;;;5113367;28;20831;-68
2022/10/20 05:49:18;;;;;;;61.60;4.37;;;;;;;;;;5114372;28;20441;-67
2022/10/20 05:51:46;;;;;;;62.13;5.73;;;;;;;;;;5115339;28;20448;-68
2022/10/20 05:54:14;;;;;;;62.37;5.70;;;;;;;;;;5115252;28;20440;-68
2022/10/20 05:56:41;;;;;;;61.80;5.13;;;;;;;;;;5115027;28;20467;-68
2022/10/20 05:59:10;;;;;;;65.47;6.73;;;;;;;;;;5114534;28;20442;-68
2022/10/20 06:01:46;;;;;;;63.63;7.37;;;;;;;;;;5114888;27;20447;-69
2022/10/20 06:04:14;;;;;;;60.40;4.70;;;;;;;;;;5114975;28;20483;-67
2022/10/20 06:06:41;;;;;;;60.30;4.97;;;;;;;;;;5114642;28;20489;-68
2022/10/20 06:09:09;;;;;;;60.37;4.33;;;;;;;;;;5113466;28;20447;-68
2022/10/20 06:11:36;;;;;;;60.30;5.33;;;;;;;;;;5114739;28;20451;-68
2022/10/20 06:14:04;;;;;;;60.27;4.80;;;;;;;;;;5114759;28;20446;-69
2022/10/20 06:16:33;;;;;;;59.60;4.00;;;;;;;;;;5114611;28;20470;-67
2022/10/20 06:19:00;;;;;;;63.50;5.93;;;;;;;;;;5114072;28;20450;-68
2022/10/20 06:21:28;;;;;;;61.57;6.20;;;;;;;;;;5114775;28;20823;-67
2022/10/20 06:23:55;;;;;;;59.70;4.27;;;;;;;;;;5114673;28;20834;-68
2022/10/20 06:26:23;;;;;;;61.47;5.43;;;;;;;;;;5114748;28;20476;-68
2022/10/20 06:28:51;;;;;;;63.30;6.20;;;;;;;;;;5113975;28;20448;-68
2022/10/20 06:31:19;;;;;;;60.70;4.30;;;;;;;;;;5114317;28;20447;-68
2022/10/20 06:33:48;;;;;;;61.43;5.60;;;;;;;;;;5114028;28;20444;-68
2022/10/20 06:36:15;;;;;;;61.07;4.63;;;;;;;;;;5113280;28;20495;-68
2022/10/20 06:38:42;;;;;;;63.03;6.00;;;;;;;;;;5113841;28;20451;-68
2022/10/20 06:41:10;;;;;;;60.70;6.27;;;;;;;;;;5114237;28;20447;-67
2022/10/20 06:43:37;;;;;;;62.87;4.40;;;;;;;;;;5114578;28;20492;-68
2022/10/20 06:46:05;;;;;;;67.13;6.20;;;;;;;;;;5113863;28;20473;-68
2022/10/20 06:48:33;;;;;;;61.10;6.20;;;;;;;;;;5113729;28;20949;-68
2022/10/20 06:51:02;;;;;;;63.37;6.70;;;;;;;;;;5114121;27;20455;-68
2022/10/20 06:53:30;;;;;;;61.87;6.90;;;;;;;;;;5113994;28;20822;-68
2022/10/20 06:55:57;;;;;;;60.57;5.30;;;;;;;;;;5113876;28;20470;-68
2022/10/20 06:58:24;;;;;;;61.30;5.27;;;;;;;;;;5113856;28;20442;-68
2022/10/20 07:00:59;;;;;;;61.20;5.20;;;;;;;;;;5113496;28;20452;-68
2022/10/20 07:03:26;;;;;;;62.93;6.10;;;;;;;;;;5113708;28;20537;-68
2022/10/20 07:05:53;;;;;;;61.77;5.03;;;;;;;;;;5113731;28;20495;-68
2022/10/20 07:08:22;;;;;;;59.30;3.97;;;;;;;;;;5113497;27;20975;-68
2022/10/20 07:10:57;;;;;;;60.40;5.37;;;;;;;;;;5113425;28;20980;-68
2022/10/20 07:13:24;;;;;;;64.40;5.23;;;;;;;;;;5113842;28;20937;-68
2022/10/20 07:15:53;;;;;;;61.70;6.23;;;;;;;;;;5113565;28;20473;-68
2022/10/20 07:18:20;;;;;;;60.80;5.33;;;;;;;;;;5113312;28;21018;-68
2022/10/20 07:20:47;;;;;;;60.77;4.77;;;;;;;;;;5113190;28;20453;-67
2022/10/20 07:23:14;;;;;;;60.67;4.90;;;;;;;;;;5113306;28;20842;-68
2022/10/20 07:25:43;;;;;;;59.10;4.33;;;;;;;;;;5113122;28;20432;-68
2022/10/20 07:28:10;;;;;;;60.40;4.30;;;;;;;;;;5113285;28;20451;-68
2022/10/20 07:30:39;;;;;;;62.90;4.90;;;;;;;;;;5113176;28;20449;-68
2022/10/20 07:33:06;;;;;;;60.97;5.00;;;;;;;;;;5113410;28;20438;-68
2022/10/20 07:35:33;;;;;;;60.67;5.37;;;;;;;;;;5112829;28;20464;-68
2022/10/20 07:38:01;;;;;;;61.97;5.40;;;;;;;;;;5113490;27;20446;-68
2022/10/20 07:40:28;;;;;;;61.97;5.20;;;;;;;;;;5112910;28;20449;-68
2022/10/20 07:42:56;;;;;;;61.50;4.77;;;;;;;;;;5113168;28;20451;-68
2022/10/20 07:45:23;;;;;;;59.80;3.83;;;;;;;;;;5112909;28;20448;-68
2022/10/20 07:47:50;;;;;;;59.40;4.47;;;;;;;;;;5113085;28;20448;-68
2022/10/20 07:50:18;;;;;;;60.67;5.47;;;;;;;;;;5112931;28;20449;-68
2022/10/20 07:52:45;;;;;;;63.90;4.63;;;;;;;;;;5112761;28;20446;-68
2022/10/20 07:55:12;;;;;;;60.20;4.57;;;;;;;;;;5112959;27;20450;-68
2022/10/20 07:57:39;;;;;;;59.30;4.00;;;;;;;;;;5112596;28;20826;-68
2022/10/20 08:00:08;;;;;;;60.30;4.00;;;;;;;;;;5112304;28;20442;-68
2022/10/20 08:02:35;;;;;;;59.10;3.83;;;;;;;;;;5112171;28;20454;-68
2022/10/20 08:05:02;;;;;;;59.57;3.90;;;;;;;;;;5112242;28;20484;-68
2022/10/20 08:07:29;;;;;;;59.53;4.33;;;;;;;;;;5111606;28;20474;-68
2022/10/20 08:09:57;;;;;;;61.10;4.60;;;;;;;;;;5111873;28;20958;-68
2022/10/20 08:12:24;;;;;;;59.10;3.93;;;;;;;;;;5112581;28;20465;-68
2022/10/20 08:14:51;;;;;;;61.43;4.60;;;;;;;;;;5112455;28;20444;-69
2022/10/20 08:17:19;;;;;;;60.00;4.20;;;;;;;;;;5112337;28;20470;-68
2022/10/20 08:19:46;;;;;;;58.60;3.70;;;;;;;;;;5112047;28;20441;-68
2022/10/20 08:22:14;;;;;;;61.07;4.33;;;;;;;;;;5112670;28;20454;-69
2022/10/20 08:24:42;;;;;;;58.87;4.13;;;;;;;;;;5112340;28;20558;-69
2022/10/20 08:27:09;;;;;;;60.80;4.10;;;;;;;;;;5112387;28;20469;-69
2022/10/20 08:29:36;;;;;;;59.00;3.83;;;;;;;;;;5112009;28;20442;-69
2022/10/20 08:32:03;;;;;;;58.80;3.50;;;;;;;;;;5112139;28;20449;-70
2022/10/20 08:34:32;;;;;;;59.13;3.97;;;;;;;;;;5111901;28;20456;-69
2022/10/20 08:36:59;;;;;;;58.60;3.67;;;;;;;;;;5112315;28;20473;-69
2022/10/20 08:39:26;;;;;;;60.57;4.83;;;;;;;;;;5111782;28;20512;-69
2022/10/20 08:41:54;;;;;;;59.47;4.30;;;;;;;;;;5112190;28;20528;-70
2022/10/20 08:44:24;;;;;;;60.50;4.50;;;;;;;;;;5112026;28;20484;-66
2022/10/20 08:46:51;;;;;;;59.10;3.90;;;;;;;;;;5111875;28;20491;-68
2022/10/20 08:49:22;;;;;;;61.90;3.73;;;;;;;;;;5111829;28;20501;-69
2022/10/20 08:51:50;;;;;;;60.20;3.80;;;;;;;;;;5112171;28;20459;-68
2022/10/20 08:54:18;;;;;;;58.47;3.20;;;;;;;;;;5112114;28;20826;-68
2022/10/20 08:56:46;;;;;;;58.47;3.40;;;;;;;;;;5111888;28;20469;-68
2022/10/20 08:59:22;;;;;;;59.97;3.90;;;;;;;;;;5111569;28;20445;-68
2022/10/20 09:01:49;;;;;;;58.80;3.63;;;;;;;;;;5112216;28;20445;-68
2022/10/20 09:04:19;;;;;;;60.30;4.33;;;;;;;;;;5111772;28;20477;-68
2022/10/20 09:06:47;;;;;;;58.90;3.70;;;;;;;;;;5111698;28;20476;-68
2022/10/20 09:09:17;;;;;;;59.13;3.57;;;;;;;;;;5111593;28;20828;-68
2022/10/20 09:11:44;;;;;;;59.40;4.17;;;;;;;;;;5112122;28;20471;-70
2022/10/20 09:14:12;;;;;;;58.23;3.70;;;;;;;;;;5111551;28;20440;-68
2022/10/20 09:16:40;;;;;;;59.80;4.03;;;;;;;;;;5111508;28;20467;-69
2022/10/20 09:19:14;;;;;;;61.13;4.50;;;;;;;;;;5111692;28;20942;-68
2022/10/20 09:21:42;;;;;;;58.80;3.97;;;;;;;;;;5115919;28;20445;-68
2022/10/20 09:24:09;;;;;;;59.00;3.20;;;;;;;;;;5115630;28;20485;-68
2022/10/20 09:26:39;;;;;;;58.50;3.07;;;;;;;;;;5115437;28;20842;-68
2022/10/20 09:29:07;;;;;;;58.90;3.67;;;;;;;;;;5115351;28;20449;-68
2022/10/20 09:31:36;;;;;;;58.90;3.40;;;;;;;;;;5115929;28;20438;-68
2022/10/20 09:34:19;;;;;;;59.00;3.40;;;;;;;;;;5115568;28;20459;-68
2022/10/20 09:36:47;;;;;;;58.70;3.20;;;;;;;;;;5115330;28;20464;-68
2022/10/20 09:39:18;;;;;;;59.57;3.77;;;;;;;;;;5114960;28;20453;-68
2022/10/20 09:41:47;;;;;;;58.23;3.10;;;;;;;;;;5115596;28;20827;-69
2022/10/20 09:44:22;;;;;;;58.80;2.80;;;;;;;;;;5115293;28;20487;-68
2022/10/20 09:46:50;;;;;;;58.87;3.03;;;;;;;;;;5115237;28;20464;-68
2022/10/20 09:49:23;;;;;;;59.37;2.80;;;;;;;;;;5114825;28;20829;-68
2022/10/20 09:51:50;;;;;;;58.20;2.77;;;;;;;;;;5115382;27;20452;-68
2022/10/20 09:54:19;;;;;;;59.17;3.37;;;;;;;;;;5115194;27;20791;-68
2022/10/20 09:56:48;;;;;;;58.10;2.73;;;;;;;;;;5115042;28;20467;-69
2022/10/20 09:59:20;;;;;;;58.60;3.07;;;;;;;;;;5114588;28;20453;-68
2022/10/20 10:01:54;;;;;;;57.47;2.60;;;;;;;;;;5115051;28;20452;-69
2022/10/20 10:04:31;;;;;;;58.27;3.00;;;;;;;;;;5115125;28;20476;-68
2022/10/20 10:06:58;;;;;;;58.70;3.20;;;;;;;;;;5115039;28;20867;-69
2022/10/20 10:09:27;;;;;;;57.57;2.57;;;;;;;;;;5114700;28;20446;-69
2022/10/20 10:12:00;;;;;;;59.97;2.90;;;;;;;;;;5114849;28;20448;-68
2022/10/20 10:14:27;;;;;;;58.00;2.47;;;;;;;;;;5114844;28;20449;-68
2022/10/20 10:16:54;;;;;;;58.37;3.00;;;;;;;;;;5114580;28;20469;-69
2022/10/20 10:19:25;;;;;;;58.30;3.13;;;;;;;;;;5114559;28;20448;-68
2022/10/20 10:21:54;;;;;;;69.33;3.23;;;;;;;;;;5114827;28;20476;-68
2022/10/20 10:24:38;;;;;;;59.07;2.90;;;;;;;;;;5114623;28;20854;-68
2022/10/20 10:27:19;;;;;;;57.83;2.63;;;;;;;;;;5114313;28;20524;-68
2022/10/20 10:29:46;;;;;;;58.27;2.67;;;;;;;;;;5114121;28;20446;-68
2022/10/20 10:32:15;;;;;;;58.60;3.20;;;;;;;;;;5114269;28;20889;-68
2022/10/20 10:34:57;;;;;;;58.70;3.50;;;;;;;;;;5114379;28;20454;-68
2022/10/20 10:37:24;;;;;;;58.23;3.00;;;;;;;;;;5101370;28;20473;-68
2022/10/20 10:39:51;;;;;;;58.03;2.50;;;;;;;;;;5114203;28;20447;-68
2022/10/20 10:42:33;;;;;;;57.87;2.60;;;;;;;;;;5114440;28;20442;-68
2022/10/20 10:45:07;;;;;;;57.90;2.70;;;;;;;;;;5111855;28;20513;-68
2022/10/20 10:47:44;;;;;;;57.87;2.67;;;;;;;;;;5114072;28;20462;-68
2022/10/20 10:50:23;;;;;;;57.93;2.60;;;;;;;;;;5114163;28;20441;-69
2022/10/20 10:52:54;;;;;;;58.03;2.90;;;;;;;;;;5114249;28;20456;-68
2022/10/20 10:55:25;;;;;;;58.50;3.20;;;;;;;;;;5113995;28;20447;-68
2022/10/20 10:57:58;;;;;;;57.67;2.80;;;;;;;;;;5113959;28;20457;-69
2022/10/20 11:00:33;;;;;;;58.00;2.50;;;;;;;;;;5113609;28;20456;-69
2022/10/20 11:03:02;;;;;;;57.63;2.70;;;;;;;;;;5114042;28;20451;-68
2022/10/20 11:05:46;;;;;;;59.77;3.10;;;;;;;;;;5113741;28;20508;-69
2022/10/20 11:08:19;;;;;;;58.07;2.83;;;;;;;;;;5113738;28;20449;-69
2022/10/20 11:10:50;;;;;;;60.17;2.80;;;;;;;;;;5113300;28;20450;-68
2022/10/20 11:13:27;;;;;;;58.20;2.40;;;;;;;;;;5113916;28;20476;-70
2022/10/20 11:16:02;;;;;;;57.97;2.93;;;;;;;;;;5113607;28;20469;-68
2022/10/20 11:18:38;;;;;;;57.97;3.13;;;;;;;;;;5113423;28;20444;-67
2022/10/20 11:21:10;;;;;;;58.60;3.00;;;;;;;;;;5113746;28;20476;-68
2022/10/20 11:23:46;;;;;;;58.83;3.17;;;;;;;;;;5112851;28;20827;-68
2022/10/20 11:26:18;;;;;;;59.17;3.47;;;;;;;;;;5112507;28;20485;-68
2022/10/20 11:28:47;;;;;;;58.17;2.73;;;;;;;;;;5112979;28;20450;-68
2022/10/20 11:31:21;;;;;;;59.57;3.33;;;;;;;;;;5113127;28;20456;-69
2022/10/20 11:33:53;;;;;;;58.07;2.80;;;;;;;;;;5113316;28;20436;-68
2022/10/20 11:36:22;;;;;;;59.13;3.50;;;;;;;;;;5113268;28;20495;-67
2022/10/20 11:38:51;;;;;;;59.37;3.43;;;;;;;;;;5112502;28;20446;-67
2022/10/20 11:41:20;;;;;;;58.17;2.93;;;;;;;;;;5112913;27;20964;-67
2022/10/20 11:43:50;;;;;;;57.97;2.83;;;;;;;;;;5112241;28;20452;-68
2022/10/20 11:46:21;;;;;;;59.00;2.90;;;;;;;;;;5112864;28;20509;-67
2022/10/20 11:48:51;;;;;;;58.67;2.93;;;;;;;;;;5112693;28;20450;-67
2022/10/20 11:51:28;;;;;;;58.67;2.57;;;;;;;;;;5112729;28;20456;-68
2022/10/20 11:54:07;;;;;;;58.80;3.13;;;;;;;;;;5112189;28;20467;-67
2022/10/20 11:56:55;;;;;;;58.07;2.77;;;;;;;;;;5111995;28;20469;-67
2022/10/20 11:59:40;;;;;;;58.40;3.17;;;;;;;;;;5107058;28;20492;-67
2022/10/20 12:02:23;;;;;;;58.97;3.33;;;;;;;;;;5112389;28;20456;-68
2022/10/20 12:05:06;;;;;;;60.60;3.53;;;;;;;;;;5112428;28;20492;-67
2022/10/20 12:07:52;;;;;;;59.07;2.90;;;;;;;;;;5112662;28;20465;-67
2022/10/20 12:10:28;;;;;;;58.00;3.10;;;;;;;;;;5112282;28;20458;-67
2022/10/20 12:13:02;;;;;;;58.27;3.17;;;;;;;;;;5112473;28;20952;-67
2022/10/20 12:15:29;;;;;;;59.73;3.83;;;;;;;;;;5112273;28;20442;-68
2022/10/20 12:18:04;;;;;;;59.03;2.80;;;;;;;;;;5112451;28;20460;-68
2022/10/20 12:20:50;;;;;;;58.70;3.43;;;;;;;;;;5112151;28;20998;-67
2022/10/20 12:23:36;;;;;;;57.83;2.70;;;;;;;;;;5112381;28;20441;-69
2022/10/20 12:26:03;;;;;;;58.40;3.00;;;;;;;;;;5112075;28;20491;-67
2022/10/20 12:28:33;;;;;;;58.90;3.63;;;;;;;;;;5112298;28;20448;-68
2022/10/20 12:31:01;;;;;;;59.17;3.10;;;;;;;;;;5112412;28;20449;-67
2022/10/20 12:33:37;;;;;;;58.37;3.20;;;;;;;;;;5112223;28;20450;-67
2022/10/20 12:36:26;;;;;;;59.50;3.20;;;;;;;;;;5111896;28;20479;-67
2022/10/20 12:38:56;;;;;;;58.80;3.50;;;;;;;;;;5111932;28;20471;-67
2022/10/20 12:41:27;;;;;;;58.60;3.30;;;;;;;;;;5112039;28;20480;-67
2022/10/20 12:43:55;;;;;;;59.33;4.00;;;;;;;;;;5099098;28;20973;-67
2022/10/20 12:46:24;;;;;;;61.90;3.27;;;;;;;;;;5102337;28;20499;-67
2022/10/20 12:48:56;;;;;;;59.07;3.97;;;;;;;;;;5091556;28;20450;-66
2022/10/20 12:51:36;;;;;;;58.80;3.30;;;;;;;;;;5091854;28;20870;-67
2022/10/20 12:54:06;;;;;;;59.90;3.30;;;;;;;;;;5093409;28;20454;-68
2022/10/20 12:56:35;;;;;;;59.00;3.60;;;;;;;;;;5095725;28;20458;-68
2022/10/20 12:59:21;;;;;;;58.47;3.00;;;;;;;;;;5095389;28;20461;-68
2022/10/20 13:02:07;;;;;;;57.77;2.90;;;;;;;;;;5095930;28;20446;-68
2022/10/20 13:04:55;;;;;;;59.03;3.50;;;;;;;;;;5095641;28;20468;-68
2022/10/20 13:07:37;;;;;;;58.37;3.47;;;;;;;;;;5095463;28;20510;-68
2022/10/20 13:10:18;;;;;;;58.70;3.23;;;;;;;;;;5095059;28;20446;-68
2022/10/20 13:12:46;;;;;;;59.50;3.97;;;;;;;;;;5095675;28;20457;-68
2022/10/20 13:15:14;;;;;;;59.20;3.77;;;;;;;;;;5095419;28;20957;-69
2022/10/20 13:17:51;;;;;;;59.33;3.20;;;;;;;;;;5095289;28;20474;-68
2022/10/20 13:20:23;;;;;;;58.80;3.20;;;;;;;;;;5095108;28;20942;-68
2022/10/20 13:22:51;;;;;;;58.90;3.47;;;;;;;;;;5095456;28;20827;-68
2022/10/20 13:25:36;;;;;;;58.83;3.40;;;;;;;;;;5095103;28;21011;-68
2022/10/20 13:28:04;;;;;;;58.80;3.53;;;;;;;;;;5095119;28;20832;-68
2022/10/20 13:30:32;;;;;;;59.70;3.80;;;;;;;;;;5095146;28;20438;-68
2022/10/20 13:33:03;;;;;;;59.20;3.50;;;;;;;;;;5095250;28;20446;-68
2022/10/20 13:35:34;;;;;;;58.60;3.40;;;;;;;;;;5094971;28;20942;-68
2022/10/20 13:38:04;;;;;;;59.13;3.87;;;;;;;;;;5095026;28;20552;-68
2022/10/20 13:40:38;;;;;;;60.80;4.47;;;;;;;;;;5094722;28;20453;-68
2022/10/20 13:43:12;;;;;;;58.97;3.57;;;;;;;;;;5095176;28;20450;-69
2022/10/20 13:45:46;;;;;;;58.90;3.47;;;;;;;;;;5095006;28;20482;-68
2022/10/20 13:48:20;;;;;;;59.60;3.93;;;;;;;;;;5094747;28;20450;-68
2022/10/20 13:50:50;;;;;;;58.50;3.27;;;;;;;;;;5094790;28;20442;-68
2022/10/20 13:53:21;;;;;;;59.40;4.07;;;;;;;;;;5094753;28;20452;-68
2022/10/20 13:55:55;;;;;;;59.57;4.03;;;;;;;;;;5095198;28;20466;-70
2022/10/20 13:58:23;;;;;;;62.40;3.77;;;;;;;;;;5094700;28;20817;-68
2022/10/20 14:00:56;;;;;;;59.07;3.70;;;;;;;;;;5094299;28;20446;-68
2022/10/20 14:03:23;;;;;;;58.20;3.03;;;;;;;;;;5094657;28;20443;-68
2022/10/20 14:05:53;;;;;;;59.73;4.10;;;;;;;;;;5093846;28;21179;-68
2022/10/20 14:08:20;;;;;;;61.47;4.30;;;;;;;;;;5094505;28;20447;-69
2022/10/20 14:10:50;;;;;;;58.97;3.83;;;;;;;;;;5094369;28;20443;-68
2022/10/20 14:13:18;;;;;;;58.97;3.77;;;;;;;;;;5094376;28;20859;-68
2022/10/20 14:15:47;;;;;;;58.87;3.80;;;;;;;;;;5094373;28;20537;-68
2022/10/20 14:18:21;;;;;;;59.57;3.93;;;;;;;;;;5094133;28;20621;-68
2022/10/20 14:20:56;;;;;;;59.90;4.07;;;;;;;;;;5094360;28;20807;-68
2022/10/20 14:23:24;;;;;;;59.47;4.27;;;;;;;;;;5094221;28;20446;-68
2022/10/20 14:25:53;;;;;;;58.77;3.33;;;;;;;;;;5094145;28;20490;-68
2022/10/20 14:28:21;;;;;;;60.20;3.97;;;;;;;;;;5094011;28;20448;-68
2022/10/20 14:30:49;;;;;;;59.00;3.37;;;;;;;;;;5093927;28;20457;-68
2022/10/20 14:33:17;;;;;;;59.13;3.33;;;;;;;;;;5094009;28;20450;-68
2022/10/20 14:35:46;;;;;;;59.43;4.13;;;;;;;;;;5093743;28;20462;-68
2022/10/20 14:38:19;;;;;;;58.63;3.40;;;;;;;;;;5093780;28;20450;-68
2022/10/20 14:40:50;;;;;;;60.07;4.20;;;;;;;;;;5093759;28;20450;-68
2022/10/20 14:43:19;;;;;;;58.20;3.17;;;;;;;;;;5093661;28;20453;-69
2022/10/20 14:45:52;;;;;;;58.70;3.30;;;;;;;;;;5094013;28;20572;-67